sensor_id;sensor_type;location;lat;lon;timestamp;P1;durP1;ratioP1;P2;durP2;ratioP2
21697;SDS011;11010;49.548;11.926;2022-07-26T00:00:15;10.10;;;4.20;;
21697;SDS011;11010;49.548;11.926;2022-07-26T00:02:44;9.80;;;4.07;;
21697;SDS011;11010;49.548;11.926;2022-07-26T00:05:16;10.40;;;4.22;;
21697;SDS011;11010;49.548;11.926;2022-07-26T00:07:44;9.63;;;3.88;;
21697;SDS011;11010;49.548;11.926;2022-07-26T00:10:12;12.75;;;4.50;;
21697;SDS011;11010;49.548;11.926;2022-07-26T00:12:39;10.43;;;3.95;;
21697;SDS011;11010;49.548;11.926;2022-07-26T00:15:07;9.85;;;3.78;;
21697;SDS011;11010;49.548;11.926;2022-07-26T00:17:37;9.57;;;3.88;;
21697;SDS011;11010;49.548;11.926;2022-07-26T00:20:04;10.07;;;3.63;;
21697;SDS011;11010;49.548;11.926;2022-07-26T00:22:32;9.13;;;3.42;;
21697;SDS011;11010;49.548;11.926;2022-07-26T00:25:03;8.13;;;3.53;;
21697;SDS011;11010;49.548;11.926;2022-07-26T00:27:33;10.38;;;3.67;;
21697;SDS011;11010;49.548;11.926;2022-07-26T00:30:06;8.73;;;3.38;;
21697;SDS011;11010;49.548;11.926;2022-07-26T00:32:35;10.77;;;3.85;;
21697;SDS011;11010;49.548;11.926;2022-07-26T00:35:04;10.52;;;3.60;;
21697;SDS011;11010;49.548;11.926;2022-07-26T00:37:31;9.68;;;3.38;;
21697;SDS011;11010;49.548;11.926;2022-07-26T00:39:59;9.23;;;3.47;;
21697;SDS011;11010;49.548;11.926;2022-07-26T00:42:26;8.32;;;3.25;;
21697;SDS011;11010;49.548;11.926;2022-07-26T00:44:53;10.40;;;3.58;;
21697;SDS011;11010;49.548;11.926;2022-07-26T00:47:20;9.60;;;3.47;;
21697;SDS011;11010;49.548;11.926;2022-07-26T00:49:48;9.35;;;3.50;;
21697;SDS011;11010;49.548;11.926;2022-07-26T00:52:15;9.13;;;3.85;;
21697;SDS011;11010;49.548;11.926;2022-07-26T00:54:43;9.32;;;3.58;;
21697;SDS011;11010;49.548;11.926;2022-07-26T00:57:12;8.48;;;3.50;;
21697;SDS011;11010;49.548;11.926;2022-07-26T00:59:40;10.38;;;3.13;;
21697;SDS011;11010;49.548;11.926;2022-07-26T01:02:09;7.82;;;2.83;;
21697;SDS011;11010;49.548;11.926;2022-07-26T01:04:38;8.38;;;3.53;;
21697;SDS011;11010;49.548;11.926;2022-07-26T01:07:05;8.05;;;3.20;;
21697;SDS011;11010;49.548;11.926;2022-07-26T01:09:41;9.25;;;3.10;;
21697;SDS011;11010;49.548;11.926;2022-07-26T01:12:08;9.82;;;3.22;;
21697;SDS011;11010;49.548;11.926;2022-07-26T01:14:36;7.57;;;2.78;;
21697;SDS011;11010;49.548;11.926;2022-07-26T01:17:03;9.15;;;3.00;;
21697;SDS011;11010;49.548;11.926;2022-07-26T01:19:30;10.23;;;3.20;;
21697;SDS011;11010;49.548;11.926;2022-07-26T01:21:58;9.38;;;2.90;;
21697;SDS011;11010;49.548;11.926;2022-07-26T01:24:25;8.45;;;2.97;;
21697;SDS011;11010;49.548;11.926;2022-07-26T01:26:52;8.93;;;2.90;;
21697;SDS011;11010;49.548;11.926;2022-07-26T01:29:21;10.65;;;3.20;;
21697;SDS011;11010;49.548;11.926;2022-07-26T01:32:02;10.65;;;3.13;;
21697;SDS011;11010;49.548;11.926;2022-07-26T01:34:30;8.25;;;2.67;;
21697;SDS011;11010;49.548;11.926;2022-07-26T01:36:58;8.05;;;2.53;;
21697;SDS011;11010;49.548;11.926;2022-07-26T01:39:25;8.13;;;2.40;;
21697;SDS011;11010;49.548;11.926;2022-07-26T01:41:52;8.20;;;2.78;;
21697;SDS011;11010;49.548;11.926;2022-07-26T01:44:22;7.88;;;2.40;;
21697;SDS011;11010;49.548;11.926;2022-07-26T01:46:49;8.75;;;2.72;;
21697;SDS011;11010;49.548;11.926;2022-07-26T01:49:16;8.52;;;2.78;;
21697;SDS011;11010;49.548;11.926;2022-07-26T01:51:44;7.50;;;2.60;;
21697;SDS011;11010;49.548;11.926;2022-07-26T01:54:11;8.00;;;2.60;;
21697;SDS011;11010;49.548;11.926;2022-07-26T01:56:38;9.70;;;2.60;;
21697;SDS011;11010;49.548;11.926;2022-07-26T01:59:05;8.38;;;2.70;;
21697;SDS011;11010;49.548;11.926;2022-07-26T02:01:33;8.40;;;2.80;;
21697;SDS011;11010;49.548;11.926;2022-07-26T02:04:06;8.57;;;2.78;;
21697;SDS011;11010;49.548;11.926;2022-07-26T02:06:34;7.70;;;2.75;;
21697;SDS011;11010;49.548;11.926;2022-07-26T02:09:03;9.80;;;2.92;;
21697;SDS011;11010;49.548;11.926;2022-07-26T02:11:36;8.23;;;2.83;;
21697;SDS011;11010;49.548;11.926;2022-07-26T02:14:03;9.60;;;2.85;;
21697;SDS011;11010;49.548;11.926;2022-07-26T02:16:30;8.35;;;2.65;;
21697;SDS011;11010;49.548;11.926;2022-07-26T02:18:57;8.80;;;2.97;;
21697;SDS011;11010;49.548;11.926;2022-07-26T02:21:24;7.15;;;2.58;;
21697;SDS011;11010;49.548;11.926;2022-07-26T02:23:52;8.40;;;2.83;;
21697;SDS011;11010;49.548;11.926;2022-07-26T02:26:19;7.85;;;2.55;;
21697;SDS011;11010;49.548;11.926;2022-07-26T02:28:46;8.25;;;2.50;;
21697;SDS011;11010;49.548;11.926;2022-07-26T02:31:13;8.25;;;2.78;;
21697;SDS011;11010;49.548;11.926;2022-07-26T02:33:41;9.40;;;2.50;;
21697;SDS011;11010;49.548;11.926;2022-07-26T02:36:08;7.63;;;2.60;;
21697;SDS011;11010;49.548;11.926;2022-07-26T02:38:35;8.20;;;2.60;;
21697;SDS011;11010;49.548;11.926;2022-07-26T02:41:02;7.18;;;2.40;;
21697;SDS011;11010;49.548;11.926;2022-07-26T02:43:31;8.98;;;2.97;;
21697;SDS011;11010;49.548;11.926;2022-07-26T02:45:58;8.30;;;2.40;;
21697;SDS011;11010;49.548;11.926;2022-07-26T02:48:29;10.20;;;2.95;;
21697;SDS011;11010;49.548;11.926;2022-07-26T02:50:57;7.97;;;2.55;;
21697;SDS011;11010;49.548;11.926;2022-07-26T02:53:24;9.05;;;2.70;;
21697;SDS011;11010;49.548;11.926;2022-07-26T02:55:51;7.50;;;2.60;;
21697;SDS011;11010;49.548;11.926;2022-07-26T02:58:18;8.18;;;2.80;;
21697;SDS011;11010;49.548;11.926;2022-07-26T03:00:50;9.07;;;2.55;;
21697;SDS011;11010;49.548;11.926;2022-07-26T03:03:17;9.40;;;2.65;;
21697;SDS011;11010;49.548;11.926;2022-07-26T03:05:44;7.68;;;2.60;;
21697;SDS011;11010;49.548;11.926;2022-07-26T03:08:12;8.25;;;2.75;;
21697;SDS011;11010;49.548;11.926;2022-07-26T03:10:39;7.63;;;2.80;;
21697;SDS011;11010;49.548;11.926;2022-07-26T03:13:06;8.15;;;2.80;;
21697;SDS011;11010;49.548;11.926;2022-07-26T03:15:33;8.25;;;2.78;;
21697;SDS011;11010;49.548;11.926;2022-07-26T03:18:00;8.82;;;2.90;;
21697;SDS011;11010;49.548;11.926;2022-07-26T03:20:27;8.82;;;2.85;;
21697;SDS011;11010;49.548;11.926;2022-07-26T03:22:55;8.63;;;2.53;;
21697;SDS011;11010;49.548;11.926;2022-07-26T03:25:22;6.97;;;2.60;;
21697;SDS011;11010;49.548;11.926;2022-07-26T03:27:49;7.85;;;2.80;;
21697;SDS011;11010;49.548;11.926;2022-07-26T03:30:16;8.60;;;2.85;;
21697;SDS011;11010;49.548;11.926;2022-07-26T03:32:52;7.55;;;2.70;;
21697;SDS011;11010;49.548;11.926;2022-07-26T03:35:19;8.55;;;3.10;;
21697;SDS011;11010;49.548;11.926;2022-07-26T03:37:46;7.60;;;2.88;;
21697;SDS011;11010;49.548;11.926;2022-07-26T03:40:14;8.35;;;2.90;;
21697;SDS011;11010;49.548;11.926;2022-07-26T03:42:42;9.43;;;2.60;;
21697;SDS011;11010;49.548;11.926;2022-07-26T03:45:11;9.75;;;2.90;;
21697;SDS011;11010;49.548;11.926;2022-07-26T03:47:39;7.95;;;2.70;;
21697;SDS011;11010;49.548;11.926;2022-07-26T03:50:07;7.70;;;2.83;;
21697;SDS011;11010;49.548;11.926;2022-07-26T03:52:36;9.02;;;2.83;;
21697;SDS011;11010;49.548;11.926;2022-07-26T03:55:03;9.20;;;2.67;;
21697;SDS011;11010;49.548;11.926;2022-07-26T03:57:51;7.85;;;2.50;;
21697;SDS011;11010;49.548;11.926;2022-07-26T04:00:19;8.55;;;2.65;;
21697;SDS011;11010;49.548;11.926;2022-07-26T04:02:46;9.50;;;2.92;;
21697;SDS011;11010;49.548;11.926;2022-07-26T04:05:13;8.93;;;2.92;;
21697;SDS011;11010;49.548;11.926;2022-07-26T04:07:49;9.98;;;2.78;;
21697;SDS011;11010;49.548;11.926;2022-07-26T04:10:19;7.38;;;2.60;;
21697;SDS011;11010;49.548;11.926;2022-07-26T04:12:48;7.43;;;2.60;;
21697;SDS011;11010;49.548;11.926;2022-07-26T04:15:16;7.88;;;2.70;;
21697;SDS011;11010;49.548;11.926;2022-07-26T04:17:44;8.48;;;2.75;;
21697;SDS011;11010;49.548;11.926;2022-07-26T04:20:14;8.85;;;2.75;;
21697;SDS011;11010;49.548;11.926;2022-07-26T04:22:41;9.43;;;2.85;;
21697;SDS011;11010;49.548;11.926;2022-07-26T04:25:09;7.40;;;2.60;;
21697;SDS011;11010;49.548;11.926;2022-07-26T04:27:36;7.75;;;2.45;;
21697;SDS011;11010;49.548;11.926;2022-07-26T04:30:04;7.75;;;2.53;;
21697;SDS011;11010;49.548;11.926;2022-07-26T04:32:39;10.05;;;3.20;;
21697;SDS011;11010;49.548;11.926;2022-07-26T04:35:07;8.35;;;2.50;;
21697;SDS011;11010;49.548;11.926;2022-07-26T04:37:41;9.25;;;2.67;;
21697;SDS011;11010;49.548;11.926;2022-07-26T04:40:10;9.02;;;2.70;;
21697;SDS011;11010;49.548;11.926;2022-07-26T04:42:41;9.30;;;2.78;;
21697;SDS011;11010;49.548;11.926;2022-07-26T04:45:08;9.13;;;2.50;;
21697;SDS011;11010;49.548;11.926;2022-07-26T04:47:43;8.07;;;2.38;;
21697;SDS011;11010;49.548;11.926;2022-07-26T04:50:14;6.93;;;2.25;;
21697;SDS011;11010;49.548;11.926;2022-07-26T04:52:42;7.82;;;2.30;;
21697;SDS011;11010;49.548;11.926;2022-07-26T04:55:09;8.05;;;2.17;;
21697;SDS011;11010;49.548;11.926;2022-07-26T04:57:39;7.60;;;2.83;;
21697;SDS011;11010;49.548;11.926;2022-07-26T05:00:08;7.88;;;2.60;;
21697;SDS011;11010;49.548;11.926;2022-07-26T05:02:53;9.35;;;2.30;;
21697;SDS011;11010;49.548;11.926;2022-07-26T05:05:23;8.27;;;2.17;;
21697;SDS011;11010;49.548;11.926;2022-07-26T05:07:53;8.95;;;2.30;;
21697;SDS011;11010;49.548;11.926;2022-07-26T05:10:26;7.47;;;1.90;;
21697;SDS011;11010;49.548;11.926;2022-07-26T05:12:55;7.93;;;2.38;;
21697;SDS011;11010;49.548;11.926;2022-07-26T05:15:22;6.88;;;2.08;;
21697;SDS011;11010;49.548;11.926;2022-07-26T05:17:50;6.75;;;2.08;;
21697;SDS011;11010;49.548;11.926;2022-07-26T05:20:17;9.65;;;2.40;;
21697;SDS011;11010;49.548;11.926;2022-07-26T05:22:45;7.47;;;2.10;;
21697;SDS011;11010;49.548;11.926;2022-07-26T05:25:12;7.55;;;2.20;;
21697;SDS011;11010;49.548;11.926;2022-07-26T05:27:39;7.53;;;2.17;;
21697;SDS011;11010;49.548;11.926;2022-07-26T05:30:07;7.32;;;2.30;;
21697;SDS011;11010;49.548;11.926;2022-07-26T05:32:36;7.90;;;2.08;;
21697;SDS011;11010;49.548;11.926;2022-07-26T05:35:03;8.30;;;2.55;;
21697;SDS011;11010;49.548;11.926;2022-07-26T05:37:32;10.43;;;2.45;;
21697;SDS011;11010;49.548;11.926;2022-07-26T05:39:59;7.88;;;2.15;;
21697;SDS011;11010;49.548;11.926;2022-07-26T05:42:27;7.88;;;1.98;;
21697;SDS011;11010;49.548;11.926;2022-07-26T05:44:55;7.40;;;2.00;;
21697;SDS011;11010;49.548;11.926;2022-07-26T05:47:22;9.48;;;2.40;;
21697;SDS011;11010;49.548;11.926;2022-07-26T05:49:49;7.78;;;2.35;;
21697;SDS011;11010;49.548;11.926;2022-07-26T05:52:16;7.68;;;2.30;;
21697;SDS011;11010;49.548;11.926;2022-07-26T05:54:45;7.85;;;2.33;;
21697;SDS011;11010;49.548;11.926;2022-07-26T05:57:12;10.50;;;2.40;;
21697;SDS011;11010;49.548;11.926;2022-07-26T05:59:40;8.98;;;2.00;;
21697;SDS011;11010;49.548;11.926;2022-07-26T06:02:07;8.05;;;2.25;;
21697;SDS011;11010;49.548;11.926;2022-07-26T06:04:35;8.30;;;1.90;;
21697;SDS011;11010;49.548;11.926;2022-07-26T06:07:02;9.35;;;2.03;;
21697;SDS011;11010;49.548;11.926;2022-07-26T06:09:29;8.77;;;2.10;;
21697;SDS011;11010;49.548;11.926;2022-07-26T06:11:57;6.43;;;1.85;;
21697;SDS011;11010;49.548;11.926;2022-07-26T06:14:25;6.72;;;2.10;;
21697;SDS011;11010;49.548;11.926;2022-07-26T06:16:53;8.73;;;1.95;;
21697;SDS011;11010;49.548;11.926;2022-07-26T06:19:21;10.18;;;1.83;;
21697;SDS011;11010;49.548;11.926;2022-07-26T06:21:49;7.85;;;1.83;;
21697;SDS011;11010;49.548;11.926;2022-07-26T06:24:16;7.07;;;1.80;;
21697;SDS011;11010;49.548;11.926;2022-07-26T06:26:43;6.82;;;1.90;;
21697;SDS011;11010;49.548;11.926;2022-07-26T06:29:11;7.18;;;1.80;;
21697;SDS011;11010;49.548;11.926;2022-07-26T06:31:40;7.82;;;1.90;;
21697;SDS011;11010;49.548;11.926;2022-07-26T06:34:07;8.52;;;1.63;;
21697;SDS011;11010;49.548;11.926;2022-07-26T06:36:36;7.18;;;1.70;;
21697;SDS011;11010;49.548;11.926;2022-07-26T06:39:03;8.05;;;1.73;;
21697;SDS011;11010;49.548;11.926;2022-07-26T06:41:31;5.93;;;1.40;;
21697;SDS011;11010;49.548;11.926;2022-07-26T06:43:59;7.03;;;1.60;;
21697;SDS011;11010;49.548;11.926;2022-07-26T06:46:26;7.30;;;1.60;;
21697;SDS011;11010;49.548;11.926;2022-07-26T06:48:54;5.78;;;1.40;;
21697;SDS011;11010;49.548;11.926;2022-07-26T06:51:22;7.68;;;1.80;;
21697;SDS011;11010;49.548;11.926;2022-07-26T06:53:50;7.82;;;1.90;;
21697;SDS011;11010;49.548;11.926;2022-07-26T06:56:18;6.68;;;1.60;;
21697;SDS011;11010;49.548;11.926;2022-07-26T06:58:49;5.95;;;1.63;;
21697;SDS011;11010;49.548;11.926;2022-07-26T07:01:17;7.35;;;1.88;;
21697;SDS011;11010;49.548;11.926;2022-07-26T07:04:05;9.57;;;1.80;;
21697;SDS011;11010;49.548;11.926;2022-07-26T07:06:33;5.90;;;1.50;;
21697;SDS011;11010;49.548;11.926;2022-07-26T07:09:00;6.00;;;1.50;;
21697;SDS011;11010;49.548;11.926;2022-07-26T07:11:27;6.65;;;1.60;;
21697;SDS011;11010;49.548;11.926;2022-07-26T07:13:55;5.95;;;1.60;;
21697;SDS011;11010;49.548;11.926;2022-07-26T07:16:22;7.65;;;1.70;;
21697;SDS011;11010;49.548;11.926;2022-07-26T07:18:49;7.22;;;1.77;;
21697;SDS011;11010;49.548;11.926;2022-07-26T07:21:17;6.85;;;1.60;;
21697;SDS011;11010;49.548;11.926;2022-07-26T07:23:44;5.93;;;1.70;;
21697;SDS011;11010;49.548;11.926;2022-07-26T07:26:11;6.13;;;1.70;;
21697;SDS011;11010;49.548;11.926;2022-07-26T07:28:38;6.60;;;1.80;;
21697;SDS011;11010;49.548;11.926;2022-07-26T07:31:06;7.53;;;1.70;;
21697;SDS011;11010;49.548;11.926;2022-07-26T07:33:33;8.55;;;1.80;;
21697;SDS011;11010;49.548;11.926;2022-07-26T07:36:18;7.78;;;1.52;;
21697;SDS011;11010;49.548;11.926;2022-07-26T07:38:45;8.43;;;1.70;;
21697;SDS011;11010;49.548;11.926;2022-07-26T07:41:14;5.85;;;1.50;;
21697;SDS011;11010;49.548;11.926;2022-07-26T07:43:42;8.68;;;1.90;;
21697;SDS011;11010;49.548;11.926;2022-07-26T07:46:09;7.18;;;1.80;;
21697;SDS011;11010;49.548;11.926;2022-07-26T07:48:39;8.02;;;1.75;;
21697;SDS011;11010;49.548;11.926;2022-07-26T07:51:12;6.28;;;1.60;;
21697;SDS011;11010;49.548;11.926;2022-07-26T07:53:39;6.95;;;1.85;;
21697;SDS011;11010;49.548;11.926;2022-07-26T07:56:07;5.53;;;1.42;;
21697;SDS011;11010;49.548;11.926;2022-07-26T07:58:34;5.75;;;1.70;;
21697;SDS011;11010;49.548;11.926;2022-07-26T08:01:01;6.55;;;1.63;;
21697;SDS011;11010;49.548;11.926;2022-07-26T08:03:30;8.50;;;2.00;;
21697;SDS011;11010;49.548;11.926;2022-07-26T08:06:05;6.20;;;1.65;;
21697;SDS011;11010;49.548;11.926;2022-07-26T08:08:34;6.20;;;1.70;;
21697;SDS011;11010;49.548;11.926;2022-07-26T08:11:03;7.72;;;1.70;;
21697;SDS011;11010;49.548;11.926;2022-07-26T08:13:33;7.68;;;1.83;;
21697;SDS011;11010;49.548;11.926;2022-07-26T08:16:02;6.72;;;2.00;;
21697;SDS011;11010;49.548;11.926;2022-07-26T08:18:35;7.50;;;1.65;;
21697;SDS011;11010;49.548;11.926;2022-07-26T08:21:18;7.38;;;1.63;;
21697;SDS011;11010;49.548;11.926;2022-07-26T08:23:46;6.50;;;1.88;;
21697;SDS011;11010;49.548;11.926;2022-07-26T08:26:13;6.78;;;1.70;;
21697;SDS011;11010;49.548;11.926;2022-07-26T08:28:40;7.60;;;2.08;;
21697;SDS011;11010;49.548;11.926;2022-07-26T08:31:27;6.15;;;1.50;;
21697;SDS011;11010;49.548;11.926;2022-07-26T08:33:55;6.60;;;1.60;;
21697;SDS011;11010;49.548;11.926;2022-07-26T08:36:22;7.90;;;1.90;;
21697;SDS011;11010;49.548;11.926;2022-07-26T08:38:57;8.20;;;1.60;;
21697;SDS011;11010;49.548;11.926;2022-07-26T08:41:24;5.95;;;1.48;;
21697;SDS011;11010;49.548;11.926;2022-07-26T08:43:51;6.63;;;1.48;;
21697;SDS011;11010;49.548;11.926;2022-07-26T08:46:20;6.75;;;1.40;;
21697;SDS011;11010;49.548;11.926;2022-07-26T08:48:52;7.07;;;1.42;;
21697;SDS011;11010;49.548;11.926;2022-07-26T08:51:20;5.57;;;1.35;;
21697;SDS011;11010;49.548;11.926;2022-07-26T08:53:51;5.43;;;1.42;;
21697;SDS011;11010;49.548;11.926;2022-07-26T08:56:30;8.13;;;1.73;;
21697;SDS011;11010;49.548;11.926;2022-07-26T08:58:58;7.53;;;1.65;;
21697;SDS011;11010;49.548;11.926;2022-07-26T09:01:27;6.97;;;1.73;;
21697;SDS011;11010;49.548;11.926;2022-07-26T09:03:55;5.47;;;1.35;;
21697;SDS011;11010;49.548;11.926;2022-07-26T09:06:22;6.93;;;1.50;;
21697;SDS011;11010;49.548;11.926;2022-07-26T09:08:53;8.02;;;1.80;;
21697;SDS011;11010;49.548;11.926;2022-07-26T09:11:37;6.38;;;1.80;;
21697;SDS011;11010;49.548;11.926;2022-07-26T09:14:05;7.43;;;1.65;;
21697;SDS011;11010;49.548;11.926;2022-07-26T09:16:32;4.97;;;1.40;;
21697;SDS011;11010;49.548;11.926;2022-07-26T09:19:23;9.27;;;1.95;;
21697;SDS011;11010;49.548;11.926;2022-07-26T09:21:50;6.95;;;1.58;;
21697;SDS011;11010;49.548;11.926;2022-07-26T09:24:34;6.20;;;1.80;;
21697;SDS011;11010;49.548;11.926;2022-07-26T09:27:03;7.15;;;1.65;;
21697;SDS011;11010;49.548;11.926;2022-07-26T09:29:48;6.72;;;1.60;;
21697;SDS011;11010;49.548;11.926;2022-07-26T09:32:19;6.63;;;2.05;;
21697;SDS011;11010;49.548;11.926;2022-07-26T09:37:40;6.65;;;1.70;;
21697;SDS011;11010;49.548;11.926;2022-07-26T09:40:13;9.38;;;2.00;;
21697;SDS011;11010;49.548;11.926;2022-07-26T09:42:58;7.65;;;1.70;;
21697;SDS011;11010;49.548;11.926;2022-07-26T09:45:31;6.15;;;1.60;;
21697;SDS011;11010;49.548;11.926;2022-07-26T09:48:01;5.82;;;1.60;;
21697;SDS011;11010;49.548;11.926;2022-07-26T09:50:32;6.35;;;1.60;;
21697;SDS011;11010;49.548;11.926;2022-07-26T09:53:07;8.77;;;1.85;;
21697;SDS011;11010;49.548;11.926;2022-07-26T09:55:52;7.10;;;2.15;;
21697;SDS011;11010;49.548;11.926;2022-07-26T09:58:21;6.80;;;1.90;;
21697;SDS011;11010;49.548;11.926;2022-07-26T10:00:49;5.07;;;1.30;;
21697;SDS011;11010;49.548;11.926;2022-07-26T10:03:17;7.35;;;1.70;;
21697;SDS011;11010;49.548;11.926;2022-07-26T10:05:44;6.18;;;1.63;;
21697;SDS011;11010;49.548;11.926;2022-07-26T10:08:11;6.45;;;1.50;;
21697;SDS011;11010;49.548;11.926;2022-07-26T10:10:44;5.22;;;1.50;;
21697;SDS011;11010;49.548;11.926;2022-07-26T10:13:14;8.45;;;1.77;;
21697;SDS011;11010;49.548;11.926;2022-07-26T10:15:43;6.05;;;1.40;;
21697;SDS011;11010;49.548;11.926;2022-07-26T10:23:48;6.45;;;1.70;;
21697;SDS011;11010;49.548;11.926;2022-07-26T10:31:47;7.57;;;1.73;;
21697;SDS011;11010;49.548;11.926;2022-07-26T10:34:30;7.25;;;1.65;;
21697;SDS011;11010;49.548;11.926;2022-07-26T10:37:02;5.82;;;1.50;;
21697;SDS011;11010;49.548;11.926;2022-07-26T10:39:34;7.20;;;1.52;;
21697;SDS011;11010;49.548;11.926;2022-07-26T10:42:08;7.15;;;1.95;;
21697;SDS011;11010;49.548;11.926;2022-07-26T10:44:37;8.15;;;1.65;;
21697;SDS011;11010;49.548;11.926;2022-07-26T10:59:58;6.68;;;1.75;;
21697;SDS011;11010;49.548;11.926;2022-07-26T11:02:27;6.88;;;1.50;;
21697;SDS011;11010;49.548;11.926;2022-07-26T11:04:59;8.00;;;1.60;;
21697;SDS011;11010;49.548;11.926;2022-07-26T11:07:30;7.13;;;1.80;;
21697;SDS011;11010;49.548;11.926;2022-07-26T11:09:58;6.68;;;1.73;;
21697;SDS011;11010;49.548;11.926;2022-07-26T11:12:26;7.72;;;1.75;;
21697;SDS011;11010;49.548;11.926;2022-07-26T11:14:53;8.07;;;1.60;;
21697;SDS011;11010;49.548;11.926;2022-07-26T11:17:24;8.05;;;1.90;;
21697;SDS011;11010;49.548;11.926;2022-07-26T11:19:53;6.43;;;1.75;;
21697;SDS011;11010;49.548;11.926;2022-07-26T11:22:21;6.28;;;1.58;;
21697;SDS011;11010;49.548;11.926;2022-07-26T11:24:56;8.05;;;1.90;;
21697;SDS011;11010;49.548;11.926;2022-07-26T11:27:24;8.90;;;1.70;;
21697;SDS011;11010;49.548;11.926;2022-07-26T11:29:51;5.97;;;1.50;;
21697;SDS011;11010;49.548;11.926;2022-07-26T11:32:23;5.72;;;1.52;;
21697;SDS011;11010;49.548;11.926;2022-07-26T11:35:00;5.85;;;1.70;;
21697;SDS011;11010;49.548;11.926;2022-07-26T11:37:29;5.68;;;1.55;;
21697;SDS011;11010;49.548;11.926;2022-07-26T11:39:56;6.57;;;1.65;;
21697;SDS011;11010;49.548;11.926;2022-07-26T11:42:24;5.70;;;1.50;;
21697;SDS011;11010;49.548;11.926;2022-07-26T11:44:51;7.22;;;1.80;;
21697;SDS011;11010;49.548;11.926;2022-07-26T11:47:20;7.15;;;1.50;;
21697;SDS011;11010;49.548;11.926;2022-07-26T11:49:51;8.05;;;1.83;;
21697;SDS011;11010;49.548;11.926;2022-07-26T11:52:38;6.57;;;1.63;;
21697;SDS011;11010;49.548;11.926;2022-07-26T11:55:06;7.30;;;1.98;;
21697;SDS011;11010;49.548;11.926;2022-07-26T11:57:34;7.05;;;1.67;;
21697;SDS011;11010;49.548;11.926;2022-07-26T12:00:02;7.03;;;1.58;;
21697;SDS011;11010;49.548;11.926;2022-07-26T12:02:39;7.55;;;1.60;;
21697;SDS011;11010;49.548;11.926;2022-07-26T12:05:17;6.95;;;1.80;;
21697;SDS011;11010;49.548;11.926;2022-07-26T12:07:52;8.13;;;1.80;;
21697;SDS011;11010;49.548;11.926;2022-07-26T12:10:20;5.90;;;1.40;;
21697;SDS011;11010;49.548;11.926;2022-07-26T12:12:48;6.45;;;2.00;;
21697;SDS011;11010;49.548;11.926;2022-07-26T12:15:15;7.63;;;2.08;;
21697;SDS011;11010;49.548;11.926;2022-07-26T12:17:58;6.25;;;1.60;;
21697;SDS011;11010;49.548;11.926;2022-07-26T12:20:26;6.90;;;1.52;;
21697;SDS011;11010;49.548;11.926;2022-07-26T12:22:54;7.50;;;1.60;;
21697;SDS011;11010;49.548;11.926;2022-07-26T12:25:27;7.50;;;1.63;;
21697;SDS011;11010;49.548;11.926;2022-07-26T12:27:55;5.05;;;1.33;;
21697;SDS011;11010;49.548;11.926;2022-07-26T12:30:22;7.05;;;1.65;;
21697;SDS011;11010;49.548;11.926;2022-07-26T12:32:59;6.40;;;1.48;;
21697;SDS011;11010;49.548;11.926;2022-07-26T12:35:28;5.78;;;1.52;;
21697;SDS011;11010;49.548;11.926;2022-07-26T12:38:01;8.63;;;1.55;;
21697;SDS011;11010;49.548;11.926;2022-07-26T12:40:29;6.18;;;1.60;;
21697;SDS011;11010;49.548;11.926;2022-07-26T12:43:04;7.18;;;1.50;;
21697;SDS011;11010;49.548;11.926;2022-07-26T12:45:32;7.45;;;1.60;;
21697;SDS011;11010;49.548;11.926;2022-07-26T12:48:01;7.38;;;1.42;;
21697;SDS011;11010;49.548;11.926;2022-07-26T12:50:32;5.93;;;1.40;;
21697;SDS011;11010;49.548;11.926;2022-07-26T12:53:00;6.47;;;1.67;;
21697;SDS011;11010;49.548;11.926;2022-07-26T12:55:30;8.15;;;1.50;;
21697;SDS011;11010;49.548;11.926;2022-07-26T12:57:57;6.95;;;1.45;;
21697;SDS011;11010;49.548;11.926;2022-07-26T13:00:25;5.55;;;1.40;;
21697;SDS011;11010;49.548;11.926;2022-07-26T13:02:55;5.18;;;1.40;;
21697;SDS011;11010;49.548;11.926;2022-07-26T13:05:22;6.15;;;1.30;;
21697;SDS011;11010;49.548;11.926;2022-07-26T13:07:50;6.45;;;1.30;;
21697;SDS011;11010;49.548;11.926;2022-07-26T13:10:18;4.65;;;1.23;;
21697;SDS011;11010;49.548;11.926;2022-07-26T13:12:59;5.88;;;1.60;;
21697;SDS011;11010;49.548;11.926;2022-07-26T13:15:27;4.57;;;1.10;;
21697;SDS011;11010;49.548;11.926;2022-07-26T13:18:03;6.60;;;1.58;;
21697;SDS011;11010;49.548;11.926;2022-07-26T13:20:37;3.05;;;1.00;;
21697;SDS011;11010;49.548;11.926;2022-07-26T13:23:05;5.65;;;1.30;;
21697;SDS011;11010;49.548;11.926;2022-07-26T13:25:39;5.38;;;1.40;;
21697;SDS011;11010;49.548;11.926;2022-07-26T13:28:08;4.68;;;1.20;;
21697;SDS011;11010;49.548;11.926;2022-07-26T13:30:36;7.88;;;1.40;;
21697;SDS011;11010;49.548;11.926;2022-07-26T13:33:05;5.47;;;1.38;;
21697;SDS011;11010;49.548;11.926;2022-07-26T13:35:32;6.82;;;1.30;;
21697;SDS011;11010;49.548;11.926;2022-07-26T13:38:00;5.32;;;1.30;;
21697;SDS011;11010;49.548;11.926;2022-07-26T13:40:27;5.60;;;1.52;;
21697;SDS011;11010;49.548;11.926;2022-07-26T13:42:57;10.52;;;1.67;;
21697;SDS011;11010;49.548;11.926;2022-07-26T13:45:25;5.00;;;1.25;;
21697;SDS011;11010;49.548;11.926;2022-07-26T13:47:56;4.68;;;1.25;;
21697;SDS011;11010;49.548;11.926;2022-07-26T13:50:25;4.50;;;1.20;;
21697;SDS011;11010;49.548;11.926;2022-07-26T13:52:54;6.32;;;1.25;;
21697;SDS011;11010;49.548;11.926;2022-07-26T13:55:22;5.13;;;1.20;;
21697;SDS011;11010;49.548;11.926;2022-07-26T13:57:49;4.60;;;1.10;;
21697;SDS011;11010;49.548;11.926;2022-07-26T14:00:26;5.15;;;1.20;;
21697;SDS011;11010;49.548;11.926;2022-07-26T14:02:57;5.75;;;1.30;;
21697;SDS011;11010;49.548;11.926;2022-07-26T14:05:25;8.43;;;1.33;;
21697;SDS011;11010;49.548;11.926;2022-07-26T14:07:53;5.28;;;1.20;;
21697;SDS011;11010;49.548;11.926;2022-07-26T14:10:21;5.00;;;1.20;;
21697;SDS011;11010;49.548;11.926;2022-07-26T14:12:50;4.88;;;1.10;;
21697;SDS011;11010;49.548;11.926;2022-07-26T14:15:18;5.63;;;1.20;;
21697;SDS011;11010;49.548;11.926;2022-07-26T14:17:51;5.70;;;1.30;;
21697;SDS011;11010;49.548;11.926;2022-07-26T14:20:19;7.97;;;1.35;;
21697;SDS011;11010;49.548;11.926;2022-07-26T14:22:47;5.00;;;1.17;;
21697;SDS011;11010;49.548;11.926;2022-07-26T14:25:19;6.00;;;1.20;;
21697;SDS011;11010;49.548;11.926;2022-07-26T14:27:51;5.88;;;1.30;;
21697;SDS011;11010;49.548;11.926;2022-07-26T14:30:20;4.72;;;1.17;;
21697;SDS011;11010;49.548;11.926;2022-07-26T14:32:48;4.90;;;1.10;;
21697;SDS011;11010;49.548;11.926;2022-07-26T14:35:16;5.30;;;1.30;;
21697;SDS011;11010;49.548;11.926;2022-07-26T14:37:43;6.25;;;1.20;;
21697;SDS011;11010;49.548;11.926;2022-07-26T14:40:12;6.03;;;1.20;;
21697;SDS011;11010;49.548;11.926;2022-07-26T14:42:40;3.13;;;0.90;;
21697;SDS011;11010;49.548;11.926;2022-07-26T14:45:08;7.53;;;1.40;;
21697;SDS011;11010;49.548;11.926;2022-07-26T14:47:36;5.28;;;1.15;;
21697;SDS011;11010;49.548;11.926;2022-07-26T14:50:04;6.72;;;1.20;;
21697;SDS011;11010;49.548;11.926;2022-07-26T14:52:40;4.35;;;1.20;;
21697;SDS011;11010;49.548;11.926;2022-07-26T14:55:10;5.35;;;1.15;;
21697;SDS011;11010;49.548;11.926;2022-07-26T14:57:38;5.43;;;1.20;;
21697;SDS011;11010;49.548;11.926;2022-07-26T15:00:07;5.32;;;1.20;;
21697;SDS011;11010;49.548;11.926;2022-07-26T15:02:40;6.13;;;1.40;;
21697;SDS011;11010;49.548;11.926;2022-07-26T15:05:10;7.88;;;1.50;;
21697;SDS011;11010;49.548;11.926;2022-07-26T15:07:38;4.95;;;1.20;;
21697;SDS011;11010;49.548;11.926;2022-07-26T15:10:07;5.70;;;1.30;;
21697;SDS011;11010;49.548;11.926;2022-07-26T15:12:35;3.17;;;1.02;;